Airfield :
LOGIN :

Register | Disclaimer

   EN    FR    IT 

 










Legend :    VFR   Marginal VFR   IFR   Intensive IFR   Very Intensive IFR
Visi :
Ceiling :
>= 8 km
>= 3000ft
5 to 8 km
1000 to 3000 ft
1500m to 5 km
500 to 1000 ft
800 to 1500m
200 to 500 ft
< 800m
< 200 ft
Symbols :   Thunderstorms  Fog  Heavy snow  Heavy precipitations  Wind > 20 kt
SIGMETs :     Misc.  Thunderstorms  Icing  Turbulence  Mountain Waves  Volcanic Ashes






- Airport Elevation : 29 ft
- IATA code : SVG


ENZV - Sola

CURRENT METAR :
  • 182150Z 16007KT 9999 -RA FEW013 SCT025CB BKN040 03/01 Q0997

EXPIRED METARs :
  • 182120Z 15006KT 9999 VCSH FEW026CB SCT053 BKN068 03/01 Q0997
  • 182050Z 16005KT 9999 VCSH FEW013CB SCT045 03/01 Q0997
  • 182020Z 23005KT 9999 VCTS FEW013CB SCT030 BKN065 04/01 Q0997 TEMPO 4000 TSRAGS BKN012CB
  • 181950Z 25012G22KT 180V280 9999 -SHRAGS FEW015CB SCT026 04/02 Q0997 TEMPO 4000 SHRAGS BKN014CB
  • 181920Z 17005KT 9999 VCSH FEW015CB SCT024 03/01 Q0997

AMD TAF ENZV
Valid from the 18 at 20:00 until the 19 at 18:00 UTC


1820/1918 22008KT 9999 -SHRA FEW015TCU BKN030
TEMPO 1820/1906 24015G25KT 4000 SHRAGS BKN012CB
PROB30
TEMPO 1820/1824 TS
BECMG 1915/1918 16012KT



MET'MAP, your aeronautical weather chart ! - Copyright ORBIFLY December 2007 - Disclaimer

ORBIFLY MET'MAP TEAM :

Programming & Development : Alexandra Zaïnal
Concept & original design : Baudouin d'Aumeries
Assistance for programming : Marc-Olivier Méhu
Technical & hardware support : Manuel Goepfert

Contact : metmap@orbifly.com




SOURCES & CREDITS :

   NOAA